sensor_id;sensor_type;location;lat;lon;timestamp;P1;durP1;ratioP1;P2;durP2;ratioP2
12369;SDS011;6249;52.128;9.986;2023-03-08T00:00:21;16.67;;;9.30;;
12369;SDS011;6249;52.128;9.986;2023-03-08T00:03:44;15.60;;;10.17;;
12369;SDS011;6249;52.128;9.986;2023-03-08T00:07:05;16.37;;;9.33;;
12369;SDS011;6249;52.128;9.986;2023-03-08T00:10:26;13.43;;;8.30;;
12369;SDS011;6249;52.128;9.986;2023-03-08T00:13:48;20.37;;;8.17;;
12369;SDS011;6249;52.128;9.986;2023-03-08T00:17:09;17.53;;;9.70;;
12369;SDS011;6249;52.128;9.986;2023-03-08T00:20:31;15.47;;;9.00;;
12369;SDS011;6249;52.128;9.986;2023-03-08T00:23:52;17.70;;;9.10;;
12369;SDS011;6249;52.128;9.986;2023-03-08T00:27:13;22.90;;;9.10;;
12369;SDS011;6249;52.128;9.986;2023-03-08T00:30:36;17.83;;;9.43;;
12369;SDS011;6249;52.128;9.986;2023-03-08T00:33:57;17.37;;;9.90;;
12369;SDS011;6249;52.128;9.986;2023-03-08T00:37:17;15.87;;;8.37;;
12369;SDS011;6249;52.128;9.986;2023-03-08T00:40:40;14.30;;;8.80;;
12369;SDS011;6249;52.128;9.986;2023-03-08T00:44:01;16.93;;;8.20;;
12369;SDS011;6249;52.128;9.986;2023-03-08T00:47:21;19.07;;;9.73;;
12369;SDS011;6249;52.128;9.986;2023-03-08T00:50:42;17.90;;;9.13;;
12369;SDS011;6249;52.128;9.986;2023-03-08T00:54:03;13.27;;;7.80;;
12369;SDS011;6249;52.128;9.986;2023-03-08T00:57:26;10.20;;;6.00;;
12369;SDS011;6249;52.128;9.986;2023-03-08T01:00:47;15.53;;;6.87;;
12369;SDS011;6249;52.128;9.986;2023-03-08T01:04:08;12.30;;;6.30;;
12369;SDS011;6249;52.128;9.986;2023-03-08T01:07:28;16.10;;;7.70;;
12369;SDS011;6249;52.128;9.986;2023-03-08T01:10:50;13.33;;;7.03;;
12369;SDS011;6249;52.128;9.986;2023-03-08T01:14:13;12.67;;;7.80;;
12369;SDS011;6249;52.128;9.986;2023-03-08T01:17:36;18.43;;;5.43;;
12369;SDS011;6249;52.128;9.986;2023-03-08T01:20:57;10.73;;;5.10;;
12369;SDS011;6249;52.128;9.986;2023-03-08T01:24:22;11.30;;;5.47;;
12369;SDS011;6249;52.128;9.986;2023-03-08T01:27:42;9.13;;;5.73;;
12369;SDS011;6249;52.128;9.986;2023-03-08T01:31:08;9.73;;;5.77;;
12369;SDS011;6249;52.128;9.986;2023-03-08T01:34:35;18.17;;;6.50;;
12369;SDS011;6249;52.128;9.986;2023-03-08T01:37:58;11.17;;;5.93;;
12369;SDS011;6249;52.128;9.986;2023-03-08T01:41:23;10.47;;;6.37;;
12369;SDS011;6249;52.128;9.986;2023-03-08T01:44:57;16.13;;;7.00;;
12369;SDS011;6249;52.128;9.986;2023-03-08T01:48:21;13.17;;;6.63;;
12369;SDS011;6249;52.128;9.986;2023-03-08T01:55:35;14.83;;;6.70;;
12369;SDS011;6249;52.128;9.986;2023-03-08T01:58:56;12.83;;;6.73;;
12369;SDS011;6249;52.128;9.986;2023-03-08T02:02:18;15.00;;;5.77;;
12369;SDS011;6249;52.128;9.986;2023-03-08T02:05:51;10.40;;;6.57;;
12369;SDS011;6249;52.128;9.986;2023-03-08T02:09:14;11.27;;;6.33;;
12369;SDS011;6249;52.128;9.986;2023-03-08T02:12:35;12.90;;;6.23;;
12369;SDS011;6249;52.128;9.986;2023-03-08T02:15:58;14.97;;;6.50;;
12369;SDS011;6249;52.128;9.986;2023-03-08T02:22:53;10.97;;;6.50;;
12369;SDS011;6249;52.128;9.986;2023-03-08T02:26:14;15.67;;;6.50;;
12369;SDS011;6249;52.128;9.986;2023-03-08T02:29:35;11.80;;;6.47;;
12369;SDS011;6249;52.128;9.986;2023-03-08T02:32:58;12.90;;;7.07;;
12369;SDS011;6249;52.128;9.986;2023-03-08T02:36:21;11.47;;;6.87;;
12369;SDS011;6249;52.128;9.986;2023-03-08T02:39:41;10.50;;;6.83;;
12369;SDS011;6249;52.128;9.986;2023-03-08T02:43:02;11.40;;;6.70;;
12369;SDS011;6249;52.128;9.986;2023-03-08T02:46:23;10.67;;;5.73;;
12369;SDS011;6249;52.128;9.986;2023-03-08T02:49:44;14.50;;;7.20;;
12369;SDS011;6249;52.128;9.986;2023-03-08T02:53:04;12.77;;;5.60;;
12369;SDS011;6249;52.128;9.986;2023-03-08T02:56:26;13.80;;;6.90;;
12369;SDS011;6249;52.128;9.986;2023-03-08T02:59:46;15.63;;;7.60;;
12369;SDS011;6249;52.128;9.986;2023-03-08T03:03:07;12.60;;;6.83;;
12369;SDS011;6249;52.128;9.986;2023-03-08T03:06:27;17.10;;;8.40;;
12369;SDS011;6249;52.128;9.986;2023-03-08T03:09:51;13.87;;;7.50;;
12369;SDS011;6249;52.128;9.986;2023-03-08T03:13:12;17.13;;;8.23;;
12369;SDS011;6249;52.128;9.986;2023-03-08T03:16:32;17.43;;;8.97;;
12369;SDS011;6249;52.128;9.986;2023-03-08T03:19:55;18.93;;;9.40;;
12369;SDS011;6249;52.128;9.986;2023-03-08T03:23:21;20.30;;;10.60;;
12369;SDS011;6249;52.128;9.986;2023-03-08T03:26:41;19.40;;;10.40;;
12369;SDS011;6249;52.128;9.986;2023-03-08T03:30:02;22.77;;;9.87;;
12369;SDS011;6249;52.128;9.986;2023-03-08T03:33:24;20.57;;;10.30;;
12369;SDS011;6249;52.128;9.986;2023-03-08T03:36:47;21.13;;;9.53;;
12369;SDS011;6249;52.128;9.986;2023-03-08T03:40:11;24.77;;;11.13;;
12369;SDS011;6249;52.128;9.986;2023-03-08T03:43:34;24.73;;;10.70;;
12369;SDS011;6249;52.128;9.986;2023-03-08T03:46:56;24.03;;;11.23;;
12369;SDS011;6249;52.128;9.986;2023-03-08T03:50:17;22.10;;;12.43;;
12369;SDS011;6249;52.128;9.986;2023-03-08T03:53:42;29.50;;;12.20;;
12369;SDS011;6249;52.128;9.986;2023-03-08T03:57:08;26.07;;;11.60;;
12369;SDS011;6249;52.128;9.986;2023-03-08T04:00:29;27.80;;;11.90;;
12369;SDS011;6249;52.128;9.986;2023-03-08T04:03:49;21.80;;;11.10;;
12369;SDS011;6249;52.128;9.986;2023-03-08T04:07:10;22.67;;;9.97;;
12369;SDS011;6249;52.128;9.986;2023-03-08T04:10:32;21.03;;;10.27;;
12369;SDS011;6249;52.128;9.986;2023-03-08T04:13:53;27.43;;;11.90;;
12369;SDS011;6249;52.128;9.986;2023-03-08T04:17:15;22.10;;;10.63;;
12369;SDS011;6249;52.128;9.986;2023-03-08T04:20:35;22.13;;;10.70;;
12369;SDS011;6249;52.128;9.986;2023-03-08T04:23:56;22.10;;;10.57;;
12369;SDS011;6249;52.128;9.986;2023-03-08T04:27:19;20.07;;;10.70;;
12369;SDS011;6249;52.128;9.986;2023-03-08T04:30:39;26.77;;;12.13;;
12369;SDS011;6249;52.128;9.986;2023-03-08T04:34:00;28.80;;;11.73;;
12369;SDS011;6249;52.128;9.986;2023-03-08T04:37:21;22.93;;;11.80;;
12369;SDS011;6249;52.128;9.986;2023-03-08T04:40:48;23.00;;;10.20;;
12369;SDS011;6249;52.128;9.986;2023-03-08T04:44:24;26.63;;;11.17;;
12369;SDS011;6249;52.128;9.986;2023-03-08T04:47:44;20.30;;;10.17;;
12369;SDS011;6249;52.128;9.986;2023-03-08T04:51:05;17.37;;;8.50;;
12369;SDS011;6249;52.128;9.986;2023-03-08T04:54:32;19.40;;;9.03;;
12369;SDS011;6249;52.128;9.986;2023-03-08T04:57:52;20.13;;;9.33;;
12369;SDS011;6249;52.128;9.986;2023-03-08T05:01:17;22.70;;;10.50;;
12369;SDS011;6249;52.128;9.986;2023-03-08T05:04:39;25.17;;;10.17;;
12369;SDS011;6249;52.128;9.986;2023-03-08T05:08:02;23.57;;;10.50;;
12369;SDS011;6249;52.128;9.986;2023-03-08T05:11:25;19.33;;;9.57;;
12369;SDS011;6249;52.128;9.986;2023-03-08T05:14:49;24.33;;;10.53;;
12369;SDS011;6249;52.128;9.986;2023-03-08T05:18:10;20.03;;;9.77;;
12369;SDS011;6249;52.128;9.986;2023-03-08T05:21:30;23.87;;;11.67;;
12369;SDS011;6249;52.128;9.986;2023-03-08T05:24:51;20.33;;;10.13;;
12369;SDS011;6249;52.128;9.986;2023-03-08T05:28:14;21.83;;;10.30;;
12369;SDS011;6249;52.128;9.986;2023-03-08T05:31:42;18.73;;;9.23;;
12369;SDS011;6249;52.128;9.986;2023-03-08T05:35:06;30.83;;;11.30;;
12369;SDS011;6249;52.128;9.986;2023-03-08T05:38:28;21.23;;;10.90;;
12369;SDS011;6249;52.128;9.986;2023-03-08T05:41:48;21.87;;;10.53;;
12369;SDS011;6249;52.128;9.986;2023-03-08T05:45:11;18.10;;;9.63;;
12369;SDS011;6249;52.128;9.986;2023-03-08T05:48:32;17.60;;;9.23;;
12369;SDS011;6249;52.128;9.986;2023-03-08T05:51:54;25.70;;;10.63;;
12369;SDS011;6249;52.128;9.986;2023-03-08T05:55:17;20.60;;;9.60;;
12369;SDS011;6249;52.128;9.986;2023-03-08T05:58:37;21.00;;;9.53;;
12369;SDS011;6249;52.128;9.986;2023-03-08T06:01:59;27.97;;;11.10;;
12369;SDS011;6249;52.128;9.986;2023-03-08T06:05:19;21.50;;;10.20;;
12369;SDS011;6249;52.128;9.986;2023-03-08T06:08:40;19.53;;;10.60;;
12369;SDS011;6249;52.128;9.986;2023-03-08T06:12:03;28.03;;;10.87;;
12369;SDS011;6249;52.128;9.986;2023-03-08T06:15:24;21.47;;;11.50;;
12369;SDS011;6249;52.128;9.986;2023-03-08T06:18:47;24.73;;;11.20;;
12369;SDS011;6249;52.128;9.986;2023-03-08T06:22:08;26.23;;;12.60;;
12369;SDS011;6249;52.128;9.986;2023-03-08T06:25:28;24.33;;;12.07;;
12369;SDS011;6249;52.128;9.986;2023-03-08T06:28:49;23.87;;;11.73;;
12369;SDS011;6249;52.128;9.986;2023-03-08T06:32:10;23.27;;;11.70;;
12369;SDS011;6249;52.128;9.986;2023-03-08T06:35:35;23.80;;;11.83;;
12369;SDS011;6249;52.128;9.986;2023-03-08T06:38:58;26.40;;;12.43;;
12369;SDS011;6249;52.128;9.986;2023-03-08T06:42:19;29.00;;;11.63;;
12369;SDS011;6249;52.128;9.986;2023-03-08T06:45:39;32.00;;;14.13;;
12369;SDS011;6249;52.128;9.986;2023-03-08T06:49:00;28.33;;;12.33;;
12369;SDS011;6249;52.128;9.986;2023-03-08T06:52:23;24.87;;;12.67;;
12369;SDS011;6249;52.128;9.986;2023-03-08T06:55:46;32.33;;;14.73;;
12369;SDS011;6249;52.128;9.986;2023-03-08T06:59:06;27.97;;;14.10;;
12369;SDS011;6249;52.128;9.986;2023-03-08T07:02:27;27.53;;;13.73;;
12369;SDS011;6249;52.128;9.986;2023-03-08T07:05:47;27.27;;;13.13;;
12369;SDS011;6249;52.128;9.986;2023-03-08T07:09:08;31.97;;;13.43;;
12369;SDS011;6249;52.128;9.986;2023-03-08T07:12:29;33.83;;;14.77;;
12369;SDS011;6249;52.128;9.986;2023-03-08T07:15:55;29.50;;;14.37;;
12369;SDS011;6249;52.128;9.986;2023-03-08T07:19:19;28.30;;;13.17;;
12369;SDS011;6249;52.128;9.986;2023-03-08T07:22:42;27.63;;;13.50;;
12369;SDS011;6249;52.128;9.986;2023-03-08T07:26:07;27.57;;;13.73;;
12369;SDS011;6249;52.128;9.986;2023-03-08T07:29:28;25.17;;;13.27;;
12369;SDS011;6249;52.128;9.986;2023-03-08T07:32:52;25.43;;;13.30;;
12369;SDS011;6249;52.128;9.986;2023-03-08T07:36:12;26.73;;;14.03;;
12369;SDS011;6249;52.128;9.986;2023-03-08T07:39:36;32.20;;;13.90;;
12369;SDS011;6249;52.128;9.986;2023-03-08T07:42:59;29.50;;;15.40;;
12369;SDS011;6249;52.128;9.986;2023-03-08T07:46:22;23.57;;;13.57;;
12369;SDS011;6249;52.128;9.986;2023-03-08T07:49:42;25.57;;;14.00;;
12369;SDS011;6249;52.128;9.986;2023-03-08T07:53:03;32.80;;;15.40;;
12369;SDS011;6249;52.128;9.986;2023-03-08T07:56:27;34.77;;;15.83;;
12369;SDS011;6249;52.128;9.986;2023-03-08T07:59:49;30.47;;;15.33;;
12369;SDS011;6249;52.128;9.986;2023-03-08T08:03:13;31.13;;;16.57;;
12369;SDS011;6249;52.128;9.986;2023-03-08T08:06:34;28.93;;;14.67;;
12369;SDS011;6249;52.128;9.986;2023-03-08T08:09:57;29.57;;;15.40;;
12369;SDS011;6249;52.128;9.986;2023-03-08T08:13:17;29.17;;;14.60;;
12369;SDS011;6249;52.128;9.986;2023-03-08T08:16:40;23.40;;;11.80;;
12369;SDS011;6249;52.128;9.986;2023-03-08T08:20:01;27.93;;;15.50;;
12369;SDS011;6249;52.128;9.986;2023-03-08T08:23:23;26.13;;;14.03;;
12369;SDS011;6249;52.128;9.986;2023-03-08T08:26:44;30.60;;;14.50;;
12369;SDS011;6249;52.128;9.986;2023-03-08T08:30:07;33.33;;;16.93;;
12369;SDS011;6249;52.128;9.986;2023-03-08T08:33:34;25.87;;;13.70;;
12369;SDS011;6249;52.128;9.986;2023-03-08T08:37:00;30.27;;;15.17;;
12369;SDS011;6249;52.128;9.986;2023-03-08T08:40:21;31.10;;;16.80;;
12369;SDS011;6249;52.128;9.986;2023-03-08T08:43:44;27.37;;;14.83;;
12369;SDS011;6249;52.128;9.986;2023-03-08T08:47:06;27.40;;;14.13;;
12369;SDS011;6249;52.128;9.986;2023-03-08T08:50:26;29.47;;;14.23;;
12369;SDS011;6249;52.128;9.986;2023-03-08T08:53:49;29.33;;;15.40;;
12369;SDS011;6249;52.128;9.986;2023-03-08T08:57:15;26.40;;;16.23;;
12369;SDS011;6249;52.128;9.986;2023-03-08T09:00:38;27.97;;;13.67;;
12369;SDS011;6249;52.128;9.986;2023-03-08T09:03:59;24.73;;;13.47;;
12369;SDS011;6249;52.128;9.986;2023-03-08T09:07:24;28.60;;;14.77;;
12369;SDS011;6249;52.128;9.986;2023-03-08T09:10:44;27.50;;;14.23;;
12369;SDS011;6249;52.128;9.986;2023-03-08T09:14:05;28.30;;;14.90;;
12369;SDS011;6249;52.128;9.986;2023-03-08T09:17:25;23.30;;;13.23;;
12369;SDS011;6249;52.128;9.986;2023-03-08T09:20:49;25.03;;;13.63;;
12369;SDS011;6249;52.128;9.986;2023-03-08T09:24:12;26.07;;;14.17;;
12369;SDS011;6249;52.128;9.986;2023-03-08T09:27:33;21.80;;;13.60;;
12369;SDS011;6249;52.128;9.986;2023-03-08T09:30:54;25.50;;;14.90;;
12369;SDS011;6249;52.128;9.986;2023-03-08T09:34:15;26.93;;;14.63;;
12369;SDS011;6249;52.128;9.986;2023-03-08T09:37:37;25.80;;;14.40;;
12369;SDS011;6249;52.128;9.986;2023-03-08T09:51:32;23.47;;;12.80;;
12369;SDS011;6249;52.128;9.986;2023-03-08T09:54:58;23.53;;;12.30;;
12369;SDS011;6249;52.128;9.986;2023-03-08T10:02:16;28.33;;;14.80;;
12369;SDS011;6249;52.128;9.986;2023-03-08T10:09:41;27.73;;;15.57;;
12369;SDS011;6249;52.128;9.986;2023-03-08T10:13:28;27.90;;;14.13;;
12369;SDS011;6249;52.128;9.986;2023-03-08T10:16:54;25.57;;;14.47;;
12369;SDS011;6249;52.128;9.986;2023-03-08T10:20:21;28.10;;;15.37;;
12369;SDS011;6249;52.128;9.986;2023-03-08T10:23:46;25.70;;;14.37;;
12369;SDS011;6249;52.128;9.986;2023-03-08T10:27:19;23.30;;;14.03;;
12369;SDS011;6249;52.128;9.986;2023-03-08T10:30:49;25.07;;;13.60;;
12369;SDS011;6249;52.128;9.986;2023-03-08T10:34:18;24.53;;;14.70;;
12369;SDS011;6249;52.128;9.986;2023-03-08T10:37:40;25.63;;;14.30;;
12369;SDS011;6249;52.128;9.986;2023-03-08T10:48:19;24.63;;;13.77;;
12369;SDS011;6249;52.128;9.986;2023-03-08T10:51:40;23.10;;;12.93;;
12369;SDS011;6249;52.128;9.986;2023-03-08T10:55:18;21.97;;;11.43;;
12369;SDS011;6249;52.128;9.986;2023-03-08T10:59:00;21.63;;;11.90;;
12369;SDS011;6249;52.128;9.986;2023-03-08T11:02:21;17.97;;;10.30;;
12369;SDS011;6249;52.128;9.986;2023-03-08T11:06:16;20.00;;;10.63;;
12369;SDS011;6249;52.128;9.986;2023-03-08T11:09:36;20.20;;;10.23;;
12369;SDS011;6249;52.128;9.986;2023-03-08T11:13:01;16.70;;;9.97;;
12369;SDS011;6249;52.128;9.986;2023-03-08T11:16:37;15.90;;;7.73;;
12369;SDS011;6249;52.128;9.986;2023-03-08T11:20:31;11.70;;;7.03;;
12369;SDS011;6249;52.128;9.986;2023-03-08T11:31:49;8.60;;;4.83;;
12369;SDS011;6249;52.128;9.986;2023-03-08T11:38:50;11.07;;;5.17;;
12369;SDS011;6249;52.128;9.986;2023-03-08T11:50:04;6.47;;;3.03;;
12369;SDS011;6249;52.128;9.986;2023-03-08T11:57:10;9.30;;;4.60;;
12369;SDS011;6249;52.128;9.986;2023-03-08T12:00:37;9.30;;;5.57;;
12369;SDS011;6249;52.128;9.986;2023-03-08T12:04:03;14.23;;;6.93;;
12369;SDS011;6249;52.128;9.986;2023-03-08T12:07:44;9.37;;;4.83;;
12369;SDS011;6249;52.128;9.986;2023-03-08T12:14:43;12.20;;;6.33;;
12369;SDS011;6249;52.128;9.986;2023-03-08T12:18:16;9.30;;;5.27;;
12369;SDS011;6249;52.128;9.986;2023-03-08T12:25:31;10.93;;;5.93;;
12369;SDS011;6249;52.128;9.986;2023-03-08T12:28:59;9.90;;;5.57;;
12369;SDS011;6249;52.128;9.986;2023-03-08T12:32:24;9.40;;;5.13;;
12369;SDS011;6249;52.128;9.986;2023-03-08T12:35:54;8.10;;;4.00;;
12369;SDS011;6249;52.128;9.986;2023-03-08T12:39:35;7.37;;;3.30;;
12369;SDS011;6249;52.128;9.986;2023-03-08T12:43:27;7.23;;;3.80;;
12369;SDS011;6249;52.128;9.986;2023-03-08T12:46:43;9.23;;;4.43;;
12369;SDS011;6249;52.128;9.986;2023-03-08T12:50:08;10.13;;;5.33;;
12369;SDS011;6249;52.128;9.986;2023-03-08T12:56:57;11.70;;;6.50;;
12369;SDS011;6249;52.128;9.986;2023-03-08T13:03:44;15.60;;;9.20;;
12369;SDS011;6249;52.128;9.986;2023-03-08T13:10:32;13.83;;;7.37;;
12369;SDS011;6249;52.128;9.986;2023-03-08T13:13:57;17.80;;;7.97;;
12369;SDS011;6249;52.128;9.986;2023-03-08T13:28:11;12.97;;;7.33;;
12369;SDS011;6249;52.128;9.986;2023-03-08T13:31:36;13.77;;;7.87;;
12369;SDS011;6249;52.128;9.986;2023-03-08T13:35:01;14.80;;;8.47;;
12369;SDS011;6249;52.128;9.986;2023-03-08T13:38:33;15.37;;;8.93;;
12369;SDS011;6249;52.128;9.986;2023-03-08T13:42:06;16.37;;;9.27;;
12369;SDS011;6249;52.128;9.986;2023-03-08T13:45:29;16.17;;;8.47;;
12369;SDS011;6249;52.128;9.986;2023-03-08T13:48:50;18.17;;;9.10;;
12369;SDS011;6249;52.128;9.986;2023-03-08T13:52:15;15.67;;;8.17;;
12369;SDS011;6249;52.128;9.986;2023-03-08T13:55:41;16.43;;;9.17;;
12369;SDS011;6249;52.128;9.986;2023-03-08T13:59:04;18.60;;;10.20;;
12369;SDS011;6249;52.128;9.986;2023-03-08T14:02:29;21.37;;;9.53;;
12369;SDS011;6249;52.128;9.986;2023-03-08T14:05:56;15.40;;;7.30;;
12369;SDS011;6249;52.128;9.986;2023-03-08T14:09:17;15.37;;;8.77;;
12369;SDS011;6249;52.128;9.986;2023-03-08T14:12:42;13.87;;;7.63;;
12369;SDS011;6249;52.128;9.986;2023-03-08T14:16:04;16.50;;;8.27;;
12369;SDS011;6249;52.128;9.986;2023-03-08T14:19:41;14.10;;;7.10;;
12369;SDS011;6249;52.128;9.986;2023-03-08T14:23:13;14.63;;;8.30;;
12369;SDS011;6249;52.128;9.986;2023-03-08T14:26:52;12.60;;;6.20;;
12369;SDS011;6249;52.128;9.986;2023-03-08T14:30:21;16.30;;;9.30;;
12369;SDS011;6249;52.128;9.986;2023-03-08T14:33:53;15.43;;;8.20;;
12369;SDS011;6249;52.128;9.986;2023-03-08T14:37:27;14.97;;;9.30;;
12369;SDS011;6249;52.128;9.986;2023-03-08T14:40:49;15.60;;;8.97;;
12369;SDS011;6249;52.128;9.986;2023-03-08T14:44:18;16.77;;;9.67;;
12369;SDS011;6249;52.128;9.986;2023-03-08T14:47:46;137.30;;;45.77;;
12369;SDS011;6249;52.128;9.986;2023-03-08T14:51:54;18.33;;;9.13;;
12369;SDS011;6249;52.128;9.986;2023-03-08T14:55:02;15.70;;;7.77;;
12369;SDS011;6249;52.128;9.986;2023-03-08T14:58:59;45.57;;;22.30;;
12369;SDS011;6249;52.128;9.986;2023-03-08T15:02:20;12.47;;;7.87;;
12369;SDS011;6249;52.128;9.986;2023-03-08T15:05:43;194.97;;;83.27;;
12369;SDS011;6249;52.128;9.986;2023-03-08T15:09:06;75.60;;;35.80;;
12369;SDS011;6249;52.128;9.986;2023-03-08T15:12:27;20.67;;;10.23;;
12369;SDS011;6249;52.128;9.986;2023-03-08T15:15:50;24.07;;;13.10;;
12369;SDS011;6249;52.128;9.986;2023-03-08T15:19:13;18.53;;;10.10;;
12369;SDS011;6249;52.128;9.986;2023-03-08T15:22:34;17.90;;;9.77;;
12369;SDS011;6249;52.128;9.986;2023-03-08T15:26:04;34.53;;;16.60;;
12369;SDS011;6249;52.128;9.986;2023-03-08T15:29:33;26.10;;;14.37;;
12369;SDS011;6249;52.128;9.986;2023-03-08T15:32:58;55.50;;;24.80;;
12369;SDS011;6249;52.128;9.986;2023-03-08T15:36:19;18.50;;;10.20;;
12369;SDS011;6249;52.128;9.986;2023-03-08T15:39:42;33.73;;;16.00;;
12369;SDS011;6249;52.128;9.986;2023-03-08T15:43:02;28.83;;;14.13;;
12369;SDS011;6249;52.128;9.986;2023-03-08T15:46:23;26.40;;;13.70;;
12369;SDS011;6249;52.128;9.986;2023-03-08T15:49:52;29.40;;;14.20;;
12369;SDS011;6249;52.128;9.986;2023-03-08T15:53:13;53.63;;;22.67;;
12369;SDS011;6249;52.128;9.986;2023-03-08T15:56:36;61.97;;;22.00;;
12369;SDS011;6249;52.128;9.986;2023-03-08T15:59:56;92.23;;;29.77;;
12369;SDS011;6249;52.128;9.986;2023-03-08T16:03:17;71.03;;;23.47;;
12369;SDS011;6249;52.128;9.986;2023-03-08T16:06:44;79.17;;;23.70;;
12369;SDS011;6249;52.128;9.986;2023-03-08T16:10:06;151.73;;;44.73;;
12369;SDS011;6249;52.128;9.986;2023-03-08T16:13:35;75.10;;;24.20;;
12369;SDS011;6249;52.128;9.986;2023-03-08T16:16:56;46.80;;;21.03;;
12369;SDS011;6249;52.128;9.986;2023-03-08T16:20:16;34.03;;;14.80;;
12369;SDS011;6249;52.128;9.986;2023-03-08T16:23:42;74.20;;;25.10;;
12369;SDS011;6249;52.128;9.986;2023-03-08T16:27:02;79.30;;;29.80;;
12369;SDS011;6249;52.128;9.986;2023-03-08T16:30:24;90.57;;;34.30;;
12369;SDS011;6249;52.128;9.986;2023-03-08T16:33:44;42.47;;;20.10;;
12369;SDS011;6249;52.128;9.986;2023-03-08T16:37:07;45.50;;;21.30;;
12369;SDS011;6249;52.128;9.986;2023-03-08T16:40:28;58.83;;;26.23;;
12369;SDS011;6249;52.128;9.986;2023-03-08T16:43:52;50.37;;;25.67;;
12369;SDS011;6249;52.128;9.986;2023-03-08T16:47:17;59.90;;;31.47;;
12369;SDS011;6249;52.128;9.986;2023-03-08T16:50:38;43.97;;;23.03;;
12369;SDS011;6249;52.128;9.986;2023-03-08T16:53:59;45.10;;;22.63;;
12369;SDS011;6249;52.128;9.986;2023-03-08T16:57:20;73.40;;;32.20;;
12369;SDS011;6249;52.128;9.986;2023-03-08T17:00:43;84.33;;;41.73;;
12369;SDS011;6249;52.128;9.986;2023-03-08T17:04:03;35.13;;;18.33;;
12369;SDS011;6249;52.128;9.986;2023-03-08T17:07:27;37.30;;;19.73;;
12369;SDS011;6249;52.128;9.986;2023-03-08T17:10:50;39.80;;;22.17;;
12369;SDS011;6249;52.128;9.986;2023-03-08T17:14:12;46.90;;;24.33;;
12369;SDS011;6249;52.128;9.986;2023-03-08T17:17:39;48.60;;;24.70;;
12369;SDS011;6249;52.128;9.986;2023-03-08T17:21:00;90.87;;;37.23;;
12369;SDS011;6249;52.128;9.986;2023-03-08T17:24:24;36.53;;;20.83;;
12369;SDS011;6249;52.128;9.986;2023-03-08T17:27:47;33.17;;;17.87;;
12369;SDS011;6249;52.128;9.986;2023-03-08T17:31:12;33.83;;;16.80;;
12369;SDS011;6249;52.128;9.986;2023-03-08T17:34:35;29.20;;;16.50;;
12369;SDS011;6249;52.128;9.986;2023-03-08T17:37:55;34.60;;;17.13;;
12369;SDS011;6249;52.128;9.986;2023-03-08T17:41:23;32.10;;;17.33;;
12369;SDS011;6249;52.128;9.986;2023-03-08T17:44:44;36.10;;;19.50;;
12369;SDS011;6249;52.128;9.986;2023-03-08T17:48:07;38.80;;;19.83;;
12369;SDS011;6249;52.128;9.986;2023-03-08T17:51:30;32.93;;;18.83;;
12369;SDS011;6249;52.128;9.986;2023-03-08T17:54:56;33.10;;;17.37;;
12369;SDS011;6249;52.128;9.986;2023-03-08T17:58:17;32.90;;;17.83;;
12369;SDS011;6249;52.128;9.986;2023-03-08T18:01:38;34.10;;;14.80;;
12369;SDS011;6249;52.128;9.986;2023-03-08T18:04:59;35.53;;;17.10;;
12369;SDS011;6249;52.128;9.986;2023-03-08T18:08:23;38.03;;;17.20;;
12369;SDS011;6249;52.128;9.986;2023-03-08T18:11:44;41.37;;;18.03;;
12369;SDS011;6249;52.128;9.986;2023-03-08T18:15:07;39.63;;;18.47;;
12369;SDS011;6249;52.128;9.986;2023-03-08T18:18:28;40.60;;;19.47;;
12369;SDS011;6249;52.128;9.986;2023-03-08T18:21:51;40.23;;;20.03;;
12369;SDS011;6249;52.128;9.986;2023-03-08T18:25:13;38.03;;;18.50;;
12369;SDS011;6249;52.128;9.986;2023-03-08T18:28:37;39.73;;;21.63;;
12369;SDS011;6249;52.128;9.986;2023-03-08T18:31:57;34.60;;;17.80;;
12369;SDS011;6249;52.128;9.986;2023-03-08T18:35:18;44.40;;;20.97;;
12369;SDS011;6249;52.128;9.986;2023-03-08T18:38:38;51.70;;;24.60;;
12369;SDS011;6249;52.128;9.986;2023-03-08T18:42:00;43.90;;;22.00;;
12369;SDS011;6249;52.128;9.986;2023-03-08T18:45:23;46.60;;;25.20;;
12369;SDS011;6249;52.128;9.986;2023-03-08T18:48:44;58.00;;;28.40;;
12369;SDS011;6249;52.128;9.986;2023-03-08T18:52:10;56.63;;;28.13;;
12369;SDS011;6249;52.128;9.986;2023-03-08T18:55:31;51.60;;;26.20;;
12369;SDS011;6249;52.128;9.986;2023-03-08T18:58:55;50.17;;;25.93;;
12369;SDS011;6249;52.128;9.986;2023-03-08T19:02:20;52.43;;;25.77;;
12369;SDS011;6249;52.128;9.986;2023-03-08T19:05:46;58.00;;;28.50;;
12369;SDS011;6249;52.128;9.986;2023-03-08T19:09:11;72.53;;;33.43;;
12369;SDS011;6249;52.128;9.986;2023-03-08T19:12:33;57.27;;;27.23;;
12369;SDS011;6249;52.128;9.986;2023-03-08T19:15:56;51.17;;;26.10;;
12369;SDS011;6249;52.128;9.986;2023-03-08T19:19:17;56.10;;;28.27;;
12369;SDS011;6249;52.128;9.986;2023-03-08T19:22:37;54.63;;;28.60;;
12369;SDS011;6249;52.128;9.986;2023-03-08T19:25:58;53.57;;;26.00;;
12369;SDS011;6249;52.128;9.986;2023-03-08T19:29:38;44.07;;;22.83;;
12369;SDS011;6249;52.128;9.986;2023-03-08T19:32:58;36.93;;;20.13;;
12369;SDS011;6249;52.128;9.986;2023-03-08T19:36:21;41.13;;;22.57;;
12369;SDS011;6249;52.128;9.986;2023-03-08T19:39:45;41.53;;;22.67;;
12369;SDS011;6249;52.128;9.986;2023-03-08T19:43:06;38.17;;;21.03;;
12369;SDS011;6249;52.128;9.986;2023-03-08T19:46:27;30.70;;;16.70;;
12369;SDS011;6249;52.128;9.986;2023-03-08T19:49:48;33.53;;;18.20;;
12369;SDS011;6249;52.128;9.986;2023-03-08T19:53:13;30.63;;;17.07;;
12369;SDS011;6249;52.128;9.986;2023-03-08T19:56:34;27.03;;;16.03;;
12369;SDS011;6249;52.128;9.986;2023-03-08T19:59:57;26.30;;;14.37;;
12369;SDS011;6249;52.128;9.986;2023-03-08T20:03:20;27.67;;;14.10;;
12369;SDS011;6249;52.128;9.986;2023-03-08T20:06:42;31.80;;;16.07;;
12369;SDS011;6249;52.128;9.986;2023-03-08T20:10:04;27.87;;;16.70;;
12369;SDS011;6249;52.128;9.986;2023-03-08T20:13:32;25.13;;;13.60;;
12369;SDS011;6249;52.128;9.986;2023-03-08T20:16:53;24.50;;;14.00;;
12369;SDS011;6249;52.128;9.986;2023-03-08T20:20:14;29.80;;;15.53;;
12369;SDS011;6249;52.128;9.986;2023-03-08T20:23:35;23.03;;;13.03;;
12369;SDS011;6249;52.128;9.986;2023-03-08T20:26:58;26.67;;;15.00;;
12369;SDS011;6249;52.128;9.986;2023-03-08T20:30:19;28.13;;;15.43;;
12369;SDS011;6249;52.128;9.986;2023-03-08T20:33:41;25.87;;;13.83;;
12369;SDS011;6249;52.128;9.986;2023-03-08T20:37:01;29.73;;;14.90;;
12369;SDS011;6249;52.128;9.986;2023-03-08T20:40:24;29.87;;;14.70;;
12369;SDS011;6249;52.128;9.986;2023-03-08T20:43:45;25.20;;;13.90;;
12369;SDS011;6249;52.128;9.986;2023-03-08T20:47:10;26.97;;;14.37;;
12369;SDS011;6249;52.128;9.986;2023-03-08T20:50:30;18.63;;;10.70;;
12369;SDS011;6249;52.128;9.986;2023-03-08T20:53:52;27.37;;;14.83;;
12369;SDS011;6249;52.128;9.986;2023-03-08T20:57:13;28.10;;;14.23;;
12369;SDS011;6249;52.128;9.986;2023-03-08T21:00:37;25.83;;;14.90;;
12369;SDS011;6249;52.128;9.986;2023-03-08T21:03:59;24.83;;;13.77;;
12369;SDS011;6249;52.128;9.986;2023-03-08T21:07:20;30.87;;;15.53;;
12369;SDS011;6249;52.128;9.986;2023-03-08T21:10:41;25.77;;;15.47;;
12369;SDS011;6249;52.128;9.986;2023-03-08T21:14:06;27.87;;;14.27;;
12369;SDS011;6249;52.128;9.986;2023-03-08T21:17:27;27.90;;;14.13;;
12369;SDS011;6249;52.128;9.986;2023-03-08T21:20:49;26.60;;;14.60;;
12369;SDS011;6249;52.128;9.986;2023-03-08T21:24:14;31.90;;;16.47;;
12369;SDS011;6249;52.128;9.986;2023-03-08T21:27:40;27.37;;;14.90;;
12369;SDS011;6249;52.128;9.986;2023-03-08T21:31:00;30.37;;;15.60;;
12369;SDS011;6249;52.128;9.986;2023-03-08T21:34:31;30.93;;;15.80;;
12369;SDS011;6249;52.128;9.986;2023-03-08T21:37:54;34.20;;;17.93;;